Time;durP1;ratioP1;P1;durP2;ratioP2;P2;SDS_P1;SDS_P2;PMS_P1;PMS_P2;Temp;Humidity;BMP_temperature;BMP_pressure;BME280_temperature;BME280_humidity;BME280_pressure;Samples;Min_cycle;Max_cycle;Signal;HPM_P1;HPM_P2
2022/07/16 00:03:00;;;;;;;3.57;2.10;;;;;;;;;;5026085;28;20516;-66
2022/07/16 00:05:34;;;;;;;3.83;2.07;;;;;;;;;;5020795;28;20366;-66
2022/07/16 00:08:04;;;;;;;2.13;1.90;;;;;;;;;;5012522;28;20230;-66
2022/07/16 00:10:38;;;;;;;4.37;2.27;;;;;;;;;;5007218;28;20222;-65
2022/07/16 00:13:11;;;;;;;4.13;2.27;;;;;;;;;;5007674;28;20199;-66
2022/07/16 00:15:41;;;;;;;2.50;2.20;;;;;;;;;;5017814;28;20305;-66
2022/07/16 00:21:13;;;;;;;4.60;2.20;;;;;;;;;;5030029;28;20291;-66
2022/07/16 00:23:44;;;;;;;4.97;2.17;;;;;;;;;;5005567;28;20743;-66
2022/07/16 00:26:13;;;;;;;3.13;1.97;;;;;;;;;;4991274;28;20306;-66
2022/07/16 00:28:43;;;;;;;3.70;2.00;;;;;;;;;;5002278;28;20295;-66
2022/07/16 00:31:17;;;;;;;2.37;1.90;;;;;;;;;;5006301;28;20206;-66
2022/07/16 00:33:46;;;;;;;6.20;2.43;;;;;;;;;;5023426;28;20194;-66
2022/07/16 00:36:21;;;;;;;3.00;2.20;;;;;;;;;;5025088;28;20592;-66
2022/07/16 00:38:50;;;;;;;5.10;2.43;;;;;;;;;;5025842;28;20276;-66
2022/07/16 00:41:21;;;;;;;4.53;2.43;;;;;;;;;;5019614;28;20225;-67
2022/07/16 00:43:54;;;;;;;3.97;2.17;;;;;;;;;;5005698;28;20241;-67
2022/07/16 00:46:29;;;;;;;3.53;2.13;;;;;;;;;;5024942;28;20218;-66
2022/07/16 00:48:58;;;;;;;2.80;1.90;;;;;;;;;;5021435;28;20237;-66
2022/07/16 00:51:26;;;;;;;3.50;2.07;;;;;;;;;;5027960;28;21578;-66
2022/07/16 00:54:08;;;;;;;2.80;2.30;;;;;;;;;;5030075;28;20207;-66
2022/07/16 00:56:40;;;;;;;5.30;2.30;;;;;;;;;;5007633;28;20202;-66
2022/07/16 00:59:11;;;;;;;3.37;1.60;;;;;;;;;;5008784;28;20222;-67
2022/07/16 01:01:43;;;;;;;2.83;2.20;;;;;;;;;;5028273;28;20202;-66
2022/07/16 01:04:16;;;;;;;3.83;2.20;;;;;;;;;;5019159;28;20429;-66
2022/07/16 01:06:47;;;;;;;2.83;1.93;;;;;;;;;;5024077;28;20207;-66
2022/07/16 01:09:18;;;;;;;2.70;1.90;;;;;;;;;;5009353;28;20213;-66
2022/07/16 01:11:54;;;;;;;3.77;2.23;;;;;;;;;;5028440;28;20186;-66
2022/07/16 01:14:24;;;;;;;1.93;1.60;;;;;;;;;;5023698;28;20191;-66
2022/07/16 01:16:55;;;;;;;2.57;2.30;;;;;;;;;;5006785;28;20698;-66
2022/07/16 01:19:27;;;;;;;2.10;1.90;;;;;;;;;;5034272;28;20222;-66
2022/07/16 01:21:57;;;;;;;2.50;1.70;;;;;;;;;;5027015;28;20194;-67
2022/07/16 01:24:26;;;;;;;2.23;1.90;;;;;;;;;;5029147;28;20540;-66
2022/07/16 01:26:58;;;;;;;2.77;2.00;;;;;;;;;;5027906;28;20225;-66
2022/07/16 01:29:26;;;;;;;2.70;1.63;;;;;;;;;;5023249;28;20209;-66
2022/07/16 01:31:57;;;;;;;2.90;1.63;;;;;;;;;;5004864;28;20211;-66
2022/07/16 01:34:27;;;;;;;4.20;1.70;;;;;;;;;;5007892;28;20186;-66
2022/07/16 01:37:01;;;;;;;3.33;1.80;;;;;;;;;;5028153;28;20242;-67
2022/07/16 01:39:39;;;;;;;2.67;1.80;;;;;;;;;;5024286;28;20197;-66
2022/07/16 01:42:08;;;;;;;3.90;2.30;;;;;;;;;;5029574;28;20206;-66
2022/07/16 01:44:37;;;;;;;3.40;2.00;;;;;;;;;;5008889;28;20225;-66
2022/07/16 01:47:13;;;;;;;3.63;1.90;;;;;;;;;;5009494;28;20222;-67
2022/07/16 01:49:45;;;;;;;2.93;2.00;;;;;;;;;;5006661;28;20227;-66
2022/07/16 01:52:24;;;;;;;2.30;1.50;;;;;;;;;;5020540;28;20211;-66
2022/07/16 01:54:56;;;;;;;3.80;2.10;;;;;;;;;;5026260;28;20221;-66
2022/07/16 01:57:26;;;;;;;2.27;1.83;;;;;;;;;;5024904;28;20203;-66
2022/07/16 01:59:57;;;;;;;3.07;1.90;;;;;;;;;;5026057;28;20206;-66
2022/07/16 02:02:27;;;;;;;3.87;1.90;;;;;;;;;;5029296;28;20274;-66
2022/07/16 02:05:01;;;;;;;3.43;2.00;;;;;;;;;;5004243;28;20214;-66
2022/07/16 02:07:32;;;;;;;2.47;1.73;;;;;;;;;;5025597;28;20268;-66
2022/07/16 02:10:06;;;;;;;4.17;1.80;;;;;;;;;;5029200;28;20652;-66
2022/07/16 02:12:37;;;;;;;3.47;1.67;;;;;;;;;;5026208;28;20203;-66
2022/07/16 02:15:11;;;;;;;4.87;1.70;;;;;;;;;;5026401;28;20218;-66
2022/07/16 02:17:43;;;;;;;4.27;1.80;;;;;;;;;;5022360;28;20247;-66
2022/07/16 02:20:13;;;;;;;2.30;1.90;;;;;;;;;;5026381;28;20206;-66
2022/07/16 02:22:43;;;;;;;5.73;2.07;;;;;;;;;;5022688;28;20223;-66
2022/07/16 02:25:17;;;;;;;2.37;1.60;;;;;;;;;;5027444;28;20207;-67
2022/07/16 02:28:09;;;;;;;3.13;1.90;;;;;;;;;;5022912;28;20264;-66
2022/07/16 02:30:47;;;;;;;4.33;1.67;;;;;;;;;;5017597;28;20191;-66
2022/07/16 02:33:20;;;;;;;3.70;1.80;;;;;;;;;;5012361;28;20187;-66
2022/07/16 02:35:55;;;;;;;2.27;1.73;;;;;;;;;;5016748;28;20210;-66
2022/07/16 02:38:31;;;;;;;7.70;1.90;;;;;;;;;;5030815;28;20199;-66
2022/07/16 02:41:02;;;;;;;1.97;1.40;;;;;;;;;;5024917;28;20339;-66
2022/07/16 02:43:32;;;;;;;1.83;1.63;;;;;;;;;;5008183;28;20857;-66
2022/07/16 02:46:04;;;;;;;3.23;1.80;;;;;;;;;;5035492;28;20199;-66
2022/07/16 02:48:35;;;;;;;2.23;1.40;;;;;;;;;;5032140;28;20249;-66
2022/07/16 02:51:10;;;;;;;3.30;1.97;;;;;;;;;;5035080;28;20229;-66
2022/07/16 02:53:41;;;;;;;2.87;1.70;;;;;;;;;;5022563;28;20233;-66
2022/07/16 02:56:11;;;;;;;2.17;1.60;;;;;;;;;;5024135;28;20218;-64
2022/07/16 02:58:40;;;;;;;2.93;1.77;;;;;;;;;;5020706;28;20546;-65
2022/07/16 03:01:11;;;;;;;3.23;1.80;;;;;;;;;;5033170;28;20937;-66
2022/07/16 03:03:54;;;;;;;4.20;1.70;;;;;;;;;;5030656;28;20265;-65
2022/07/16 03:06:27;;;;;;;2.70;1.93;;;;;;;;;;5038112;28;20252;-66
2022/07/16 03:08:59;;;;;;;3.03;1.70;;;;;;;;;;5043651;28;20205;-65
2022/07/16 03:11:29;;;;;;;2.80;1.83;;;;;;;;;;5022118;28;20646;-65
2022/07/16 03:13:58;;;;;;;2.50;1.53;;;;;;;;;;5029219;28;20203;-65
2022/07/16 03:16:42;;;;;;;2.43;1.60;;;;;;;;;;5003287;28;20434;-65
2022/07/16 03:19:10;;;;;;;2.60;1.50;;;;;;;;;;5041596;28;20202;-65
2022/07/16 03:21:38;;;;;;;3.13;1.80;;;;;;;;;;5036918;28;20770;-65
2022/07/16 03:24:10;;;;;;;2.37;1.47;;;;;;;;;;5025449;28;20226;-65
2022/07/16 03:26:42;;;;;;;3.37;1.90;;;;;;;;;;5030380;28;20229;-65
2022/07/16 03:29:14;;;;;;;2.07;1.77;;;;;;;;;;5010203;28;20789;-66
2022/07/16 03:31:44;;;;;;;4.60;1.60;;;;;;;;;;5025627;28;20187;-66
2022/07/16 03:34:13;;;;;;;1.93;1.47;;;;;;;;;;5042247;28;20519;-65
2022/07/16 03:36:46;;;;;;;2.93;1.47;;;;;;;;;;5025889;28;20191;-65
2022/07/16 03:39:16;;;;;;;4.77;1.70;;;;;;;;;;5033582;28;20213;-65
2022/07/16 03:41:47;;;;;;;2.67;1.47;;;;;;;;;;5008422;28;20210;-65
2022/07/16 03:44:17;;;;;;;2.70;1.57;;;;;;;;;;5027595;28;20191;-65
2022/07/16 03:46:45;;;;;;;3.23;1.40;;;;;;;;;;4995252;28;20302;-65
2022/07/16 03:49:16;;;;;;;1.80;1.47;;;;;;;;;;5029421;28;20241;-65
2022/07/16 03:51:45;;;;;;;2.13;1.50;;;;;;;;;;5029766;28;20207;-67
2022/07/16 03:54:16;;;;;;;2.33;1.57;;;;;;;;;;5034114;28;20245;-66
2022/07/16 03:56:48;;;;;;;1.43;1.33;;;;;;;;;;5045329;28;20190;-65
2022/07/16 03:59:18;;;;;;;2.27;1.80;;;;;;;;;;5029054;28;20728;-65
2022/07/16 04:01:51;;;;;;;3.70;1.60;;;;;;;;;;5032514;28;20340;-64
2022/07/16 04:04:20;;;;;;;2.50;1.63;;;;;;;;;;5013802;28;20214;-64
2022/07/16 04:06:51;;;;;;;2.00;1.67;;;;;;;;;;5008133;28;20223;-67
2022/07/16 04:09:22;;;;;;;2.10;1.53;;;;;;;;;;5033697;28;20183;-67
2022/07/16 04:11:56;;;;;;;3.17;1.60;;;;;;;;;;5027079;28;20203;-67
2022/07/16 04:14:28;;;;;;;3.53;1.80;;;;;;;;;;5029407;28;20191;-67
2022/07/16 04:17:00;;;;;;;1.83;1.40;;;;;;;;;;5007499;28;20309;-68
2022/07/16 04:19:32;;;;;;;3.27;1.60;;;;;;;;;;5029605;28;20195;-67
2022/07/16 04:22:03;;;;;;;2.87;1.30;;;;;;;;;;5028923;28;20253;-67
2022/07/16 04:24:38;;;;;;;2.13;1.40;;;;;;;;;;5005591;28;20665;-68
2022/07/16 04:27:10;;;;;;;2.47;1.67;;;;;;;;;;5011809;28;20230;-65
2022/07/16 04:29:41;;;;;;;2.33;1.63;;;;;;;;;;5031947;28;20620;-66
2022/07/16 04:32:10;;;;;;;2.00;1.80;;;;;;;;;;5039206;28;20610;-66
2022/07/16 04:34:42;;;;;;;2.03;1.40;;;;;;;;;;5032498;28;20248;-66
2022/07/16 04:37:15;;;;;;;2.00;1.70;;;;;;;;;;5027845;28;20562;-64
2022/07/16 04:39:47;;;;;;;4.73;1.77;;;;;;;;;;5022060;28;20207;-64
2022/07/16 04:42:18;;;;;;;3.73;1.83;;;;;;;;;;5011410;28;20195;-65
2022/07/16 04:45:03;;;;;;;2.00;1.63;;;;;;;;;;5028126;28;20234;-66
2022/07/16 04:47:33;;;;;;;2.27;1.93;;;;;;;;;;5020479;28;20219;-64
2022/07/16 04:50:03;;;;;;;3.43;1.70;;;;;;;;;;5033976;28;20766;-64
2022/07/16 04:52:38;;;;;;;2.47;1.67;;;;;;;;;;5007729;28;20207;-64
2022/07/16 04:55:13;;;;;;;3.63;2.13;;;;;;;;;;5032481;28;20542;-66
2022/07/16 04:57:45;;;;;;;2.83;2.20;;;;;;;;;;5012949;28;20608;-66
2022/07/16 05:00:17;;;;;;;3.60;2.50;;;;;;;;;;5031160;28;20281;-68
2022/07/16 05:02:57;;;;;;;2.37;2.07;;;;;;;;;;5031197;28;20198;-66
2022/07/16 05:05:32;;;;;;;2.80;2.43;;;;;;;;;;5025314;28;20223;-67
2022/07/16 05:08:04;;;;;;;4.43;2.27;;;;;;;;;;5015177;28;20203;-67
2022/07/16 05:10:38;;;;;;;4.13;2.60;;;;;;;;;;5039638;28;20663;-67
2022/07/16 05:13:10;;;;;;;4.37;2.60;;;;;;;;;;5036170;28;20202;-67
2022/07/16 05:15:42;;;;;;;3.23;2.20;;;;;;;;;;5025578;28;20621;-67
2022/07/16 05:18:13;;;;;;;4.30;2.33;;;;;;;;;;5033234;28;20338;-67
2022/07/16 05:20:44;;;;;;;3.13;2.13;;;;;;;;;;5034182;28;20191;-67
2022/07/16 05:23:14;;;;;;;4.23;2.17;;;;;;;;;;5017417;28;20647;-67
2022/07/16 05:25:44;;;;;;;3.17;2.20;;;;;;;;;;5037414;28;20206;-67
2022/07/16 05:28:14;;;;;;;3.37;2.20;;;;;;;;;;5032973;28;20637;-67
2022/07/16 05:30:46;;;;;;;3.93;2.40;;;;;;;;;;5017212;28;21469;-67
2022/07/16 05:33:13;;;;;;;3.83;2.40;;;;;;;;;;5030791;28;20205;-67
2022/07/16 05:35:42;;;;;;;3.33;2.70;;;;;;;;;;5025513;28;20696;-66
2022/07/16 05:38:14;;;;;;;6.27;2.80;;;;;;;;;;5027811;28;20214;-66
2022/07/16 05:40:46;;;;;;;3.57;2.73;;;;;;;;;;5030912;28;20632;-67
2022/07/16 05:43:17;;;;;;;4.33;3.10;;;;;;;;;;5045754;28;20282;-67
2022/07/16 05:45:47;;;;;;;4.37;3.07;;;;;;;;;;5020911;28;20194;-67
2022/07/16 05:48:18;;;;;;;3.53;2.80;;;;;;;;;;5029464;28;20243;-67
2022/07/16 05:50:51;;;;;;;6.23;3.10;;;;;;;;;;5031993;28;20198;-65
2022/07/16 05:53:25;;;;;;;6.10;2.97;;;;;;;;;;5014215;28;20229;-64
2022/07/16 05:55:54;;;;;;;4.20;3.10;;;;;;;;;;5041851;28;20190;-65
2022/07/16 05:58:23;;;;;;;3.97;2.70;;;;;;;;;;5027326;28;20195;-64
2022/07/16 06:00:53;;;;;;;3.77;2.60;;;;;;;;;;5039069;28;20222;-64
2022/07/16 06:03:21;;;;;;;4.20;2.70;;;;;;;;;;5041347;28;20207;-64
2022/07/16 06:05:54;;;;;;;3.10;2.63;;;;;;;;;;5026588;28;20227;-67
2022/07/16 06:08:25;;;;;;;3.57;2.63;;;;;;;;;;5042700;28;20213;-67
2022/07/16 06:10:56;;;;;;;3.43;2.47;;;;;;;;;;5034125;28;20207;-66
2022/07/16 06:13:26;;;;;;;5.57;2.50;;;;;;;;;;5036566;28;20199;-66
2022/07/16 06:16:01;;;;;;;3.70;2.77;;;;;;;;;;5039047;28;20210;-66
2022/07/16 06:18:31;;;;;;;3.87;2.70;;;;;;;;;;5024977;28;20230;-66
2022/07/16 06:21:01;;;;;;;3.53;2.23;;;;;;;;;;5040306;28;20206;-66
2022/07/16 06:23:31;;;;;;;4.20;2.17;;;;;;;;;;5045525;28;20206;-66
2022/07/16 06:26:00;;;;;;;2.40;1.90;;;;;;;;;;5040989;28;20209;-66
2022/07/16 06:28:29;;;;;;;3.27;1.77;;;;;;;;;;5025741;28;20256;-66
2022/07/16 06:31:00;;;;;;;2.17;1.80;;;;;;;;;;5010308;28;20214;-65
2022/07/16 06:33:32;;;;;;;2.03;1.80;;;;;;;;;;5048054;28;20191;-65
2022/07/16 06:36:05;;;;;;;3.87;1.70;;;;;;;;;;5041112;28;20206;-65
2022/07/16 06:38:35;;;;;;;2.43;1.40;;;;;;;;;;5029824;28;20191;-65
2022/07/16 06:41:07;;;;;;;2.13;1.60;;;;;;;;;;5025577;28;20241;-67
2022/07/16 06:43:43;;;;;;;6.13;1.67;;;;;;;;;;5023970;28;20195;-67
2022/07/16 06:46:15;;;;;;;2.47;1.40;;;;;;;;;;5028364;28;20520;-68
2022/07/16 06:48:46;;;;;;;3.63;1.50;;;;;;;;;;5030991;28;20234;-68
2022/07/16 06:51:15;;;;;;;3.10;1.67;;;;;;;;;;5031052;28;20742;-68
2022/07/16 06:53:56;;;;;;;3.20;1.60;;;;;;;;;;5002408;28;20227;-67
2022/07/16 06:56:31;;;;;;;1.97;1.47;;;;;;;;;;5029693;28;20282;-69
2022/07/16 06:59:02;;;;;;;5.67;1.60;;;;;;;;;;5037597;28;20214;-69
2022/07/16 07:01:37;;;;;;;2.17;1.60;;;;;;;;;;5032566;28;20200;-69
2022/07/16 07:04:05;;;;;;;3.20;1.70;;;;;;;;;;5026105;28;20199;-69
2022/07/16 07:06:37;;;;;;;2.90;1.60;;;;;;;;;;5019835;28;20207;-69
2022/07/16 07:09:09;;;;;;;2.87;1.77;;;;;;;;;;5036525;28;20643;-69
2022/07/16 07:11:40;;;;;;;2.97;1.20;;;;;;;;;;5033762;28;20200;-68
2022/07/16 07:14:15;;;;;;;4.63;1.30;;;;;;;;;;5028859;28;20187;-66
2022/07/16 07:16:43;;;;;;;1.87;1.40;;;;;;;;;;5016290;28;20199;-65
2022/07/16 07:19:14;;;;;;;3.73;1.50;;;;;;;;;;5015605;28;20209;-66
2022/07/16 07:21:47;;;;;;;4.27;1.50;;;;;;;;;;5010434;28;20199;-65
2022/07/16 07:24:19;;;;;;;4.93;1.50;;;;;;;;;;5029169;28;20302;-66
2022/07/16 07:27:33;;;;;;;4.10;1.40;;;;;;;;;;5032881;28;20213;-64
2022/07/16 07:30:11;;;;;;;2.53;1.73;;;;;;;;;;5029832;28;20620;-64
2022/07/16 07:32:45;;;;;;;4.53;1.40;;;;;;;;;;5035678;28;20199;-66
2022/07/16 07:35:14;;;;;;;5.13;1.90;;;;;;;;;;5034699;28;20625;-64
2022/07/16 07:37:50;;;;;;;14.90;2.83;;;;;;;;;;5041075;28;20620;-66
2022/07/16 07:40:22;;;;;;;6.77;2.40;;;;;;;;;;5025078;28;20216;-64
2022/07/16 07:42:54;;;;;;;7.37;1.90;;;;;;;;;;5000848;28;20202;-66
2022/07/16 07:45:24;;;;;;;5.87;1.90;;;;;;;;;;5031845;28;20186;-64
2022/07/16 07:47:53;;;;;;;3.77;1.43;;;;;;;;;;5032968;28;20272;-66
2022/07/16 07:50:22;;;;;;;4.33;1.60;;;;;;;;;;5016436;28;20237;-66
2022/07/16 07:52:53;;;;;;;4.03;1.43;;;;;;;;;;5029920;28;20218;-66
2022/07/16 07:55:24;;;;;;;4.70;1.43;;;;;;;;;;5023944;28;20222;-68
2022/07/16 07:57:55;;;;;;;1.90;1.33;;;;;;;;;;5028442;28;20203;-67
2022/07/16 08:00:24;;;;;;;5.67;1.40;;;;;;;;;;5029648;28;20199;-67
2022/07/16 08:02:58;;;;;;;2.20;1.23;;;;;;;;;;5029960;28;20195;-67
2022/07/16 08:05:30;;;;;;;3.53;1.53;;;;;;;;;;5023843;28;20689;-66
2022/07/16 08:08:03;;;;;;;3.63;1.20;;;;;;;;;;5032872;28;20211;-66
2022/07/16 08:10:34;;;;;;;3.03;1.30;;;;;;;;;;5037971;28;20242;-67
2022/07/16 08:13:08;;;;;;;1.87;1.13;;;;;;;;;;5028990;28;20278;-66
2022/07/16 08:15:41;;;;;;;2.50;1.37;;;;;;;;;;5012356;28;20192;-65
2022/07/16 08:18:13;;;;;;;5.37;1.50;;;;;;;;;;5030623;28;20687;-66
2022/07/16 08:20:43;;;;;;;3.10;1.57;;;;;;;;;;5030095;28;20203;-66
2022/07/16 08:25:44;;;;;;;2.30;1.33;;;;;;;;;;5034098;28;20194;-66
2022/07/16 08:26:07;;;;;;;3.73;1.83;;;;;;;;;;5035078;28;20198;-65
2022/07/16 08:28:40;;;;;;;2.87;1.60;;;;;;;;;;5037456;28;20244;-64
2022/07/16 08:31:14;;;;;;;1.77;1.23;;;;;;;;;;5038404;28;20215;-65
2022/07/16 08:33:53;;;;;;;3.17;1.30;;;;;;;;;;5029992;28;20199;-65
2022/07/16 08:36:25;;;;;;;1.87;1.37;;;;;;;;;;5024886;28;20249;-64
2022/07/16 08:38:54;;;;;;;2.90;1.30;;;;;;;;;;4995692;28;20229;-64
2022/07/16 08:41:26;;;;;;;2.53;1.43;;;;;;;;;;5008414;28;20215;-64
2022/07/16 08:43:56;;;;;;;2.17;1.30;;;;;;;;;;5032739;28;20196;-64
2022/07/16 08:46:30;;;;;;;3.67;1.43;;;;;;;;;;5029010;28;20191;-65
2022/07/16 08:49:01;;;;;;;2.27;1.30;;;;;;;;;;5016786;28;20305;-64
2022/07/16 08:51:32;;;;;;;1.93;1.10;;;;;;;;;;5018999;28;20664;-65
2022/07/16 08:54:09;;;;;;;2.30;1.30;;;;;;;;;;5010541;28;20195;-66
2022/07/16 08:56:37;;;;;;;3.00;1.47;;;;;;;;;;5030597;28;20201;-65
2022/07/16 08:59:07;;;;;;;2.60;1.20;;;;;;;;;;5028627;28;20194;-65
2022/07/16 09:01:34;;;;;;;3.80;1.30;;;;;;;;;;5029832;28;20203;-64
2022/07/16 09:04:03;;;;;;;3.03;1.60;;;;;;;;;;5022934;28;20587;-65
2022/07/16 09:06:35;;;;;;;2.57;1.47;;;;;;;;;;4998104;28;20194;-64
2022/07/16 09:09:04;;;;;;;3.63;1.50;;;;;;;;;;5026072;28;20710;-64
2022/07/16 09:11:38;;;;;;;3.27;1.53;;;;;;;;;;5024194;28;20196;-64
2022/07/16 09:14:18;;;;;;;2.67;1.13;;;;;;;;;;5003189;28;20622;-63
2022/07/16 09:16:53;;;;;;;2.37;1.30;;;;;;;;;;5025189;28;20206;-64
2022/07/16 09:19:43;;;;;;;2.30;1.10;;;;;;;;;;5029023;28;20206;-64
2022/07/16 09:22:17;;;;;;;3.17;1.40;;;;;;;;;;5027825;28;20265;-65
2022/07/16 09:24:54;;;;;;;1.93;1.10;;;;;;;;;;5010724;28;20206;-68
2022/07/16 09:27:36;;;;;;;3.23;1.40;;;;;;;;;;5023998;28;20620;-64
2022/07/16 09:30:08;;;;;;;2.50;1.40;;;;;;;;;;5012500;28;20231;-65
2022/07/16 09:32:39;;;;;;;3.27;1.40;;;;;;;;;;5027275;28;20679;-66
2022/07/16 09:35:16;;;;;;;2.03;1.30;;;;;;;;;;5009018;28;20720;-65
2022/07/16 09:37:50;;;;;;;3.33;1.30;;;;;;;;;;5029020;28;20194;-65
2022/07/16 09:40:35;;;;;;;2.03;1.20;;;;;;;;;;5012726;28;20213;-65
2022/07/16 09:43:15;;;;;;;1.83;1.17;;;;;;;;;;5031029;28;20315;-65
2022/07/16 09:45:51;;;;;;;3.47;1.50;;;;;;;;;;5027318;28;20201;-66
2022/07/16 09:48:37;;;;;;;1.90;1.10;;;;;;;;;;5013000;28;20231;-65
2022/07/16 09:51:28;;;;;;;4.60;1.37;;;;;;;;;;5021490;28;20210;-64
2022/07/16 09:54:34;;;;;;;2.83;1.43;;;;;;;;;;5014330;28;20234;-64
2022/07/16 09:57:18;;;;;;;1.47;1.20;;;;;;;;;;4999535;28;20206;-64
2022/07/16 09:59:51;;;;;;;2.03;1.13;;;;;;;;;;5029738;28;20186;-65
2022/07/16 10:02:30;;;;;;;2.40;1.30;;;;;;;;;;5021222;28;20230;-65
2022/07/16 10:05:03;;;;;;;2.57;1.17;;;;;;;;;;4993373;28;20206;-65
2022/07/16 10:07:33;;;;;;;2.23;0.97;;;;;;;;;;5023639;28;20215;-65
2022/07/16 10:10:08;;;;;;;3.63;1.30;;;;;;;;;;5008746;28;20723;-65
2022/07/16 10:12:37;;;;;;;2.10;1.20;;;;;;;;;;5027005;28;20302;-66
2022/07/16 10:15:08;;;;;;;2.00;1.10;;;;;;;;;;5032428;28;20195;-65
2022/07/16 10:17:38;;;;;;;2.70;1.10;;;;;;;;;;5021578;28;20326;-65
2022/07/16 10:20:14;;;;;;;1.30;0.97;;;;;;;;;;5036094;28;20203;-65
2022/07/16 10:22:58;;;;;;;2.67;1.30;;;;;;;;;;5015858;28;20203;-64
2022/07/16 10:25:29;;;;;;;2.83;1.30;;;;;;;;;;5024929;28;20228;-64
2022/07/16 10:27:59;;;;;;;4.07;1.30;;;;;;;;;;5023268;28;20628;-65
2022/07/16 10:30:32;;;;;;;2.77;1.67;;;;;;;;;;5036215;28;20273;-66
2022/07/16 10:33:36;;;;;;;2.20;1.13;;;;;;;;;;5015191;28;20219;-66
2022/07/16 10:36:05;;;;;;;1.13;1.00;;;;;;;;;;5029981;28;20463;-66
2022/07/16 10:38:38;;;;;;;1.90;1.03;;;;;;;;;;5033791;28;20206;-65
2022/07/16 10:41:17;;;;;;;2.23;1.10;;;;;;;;;;5015663;28;20245;-67
2022/07/16 10:44:04;;;;;;;3.00;1.30;;;;;;;;;;5022656;28;20202;-67
2022/07/16 10:46:50;;;;;;;3.43;1.20;;;;;;;;;;5029105;28;20735;-66
2022/07/16 10:49:23;;;;;;;2.00;1.40;;;;;;;;;;5010913;28;20244;-67
2022/07/16 10:51:56;;;;;;;4.33;1.03;;;;;;;;;;5021396;28;20218;-67
2022/07/16 10:54:29;;;;;;;5.97;1.20;;;;;;;;;;5028957;28;20759;-66
2022/07/16 10:57:01;;;;;;;3.30;1.40;;;;;;;;;;5016558;28;20209;-67
2022/07/16 10:59:43;;;;;;;2.57;1.20;;;;;;;;;;5015925;28;20198;-67
2022/07/16 11:02:16;;;;;;;3.97;1.73;;;;;;;;;;5017629;28;20202;-67
2022/07/16 11:04:46;;;;;;;3.70;1.20;;;;;;;;;;5016554;28;20207;-67
2022/07/16 11:07:22;;;;;;;2.50;1.23;;;;;;;;;;5034729;28;20226;-67
2022/07/16 11:09:55;;;;;;;1.80;1.10;;;;;;;;;;5036145;28;20226;-66
2022/07/16 11:12:27;;;;;;;1.90;1.10;;;;;;;;;;5029142;28;20202;-65
2022/07/16 11:14:57;;;;;;;1.63;1.20;;;;;;;;;;5028303;28;20676;-66
2022/07/16 11:17:29;;;;;;;2.40;1.00;;;;;;;;;;5024952;28;20250;-65
2022/07/16 11:20:08;;;;;;;1.77;1.00;;;;;;;;;;5030748;28;20198;-65
2022/07/16 11:22:42;;;;;;;1.73;1.30;;;;;;;;;;5024158;28;20210;-67
2022/07/16 11:25:14;;;;;;;1.70;1.30;;;;;;;;;;5015759;28;20207;-66
2022/07/16 11:27:44;;;;;;;2.50;1.10;;;;;;;;;;5003060;28;20723;-65
2022/07/16 11:30:13;;;;;;;2.80;1.30;;;;;;;;;;5033677;28;20281;-65
2022/07/16 11:32:47;;;;;;;3.00;1.37;;;;;;;;;;4999770;28;20202;-66
2022/07/16 11:35:20;;;;;;;1.50;1.17;;;;;;;;;;5012278;28;20647;-65
2022/07/16 11:37:58;;;;;;;2.90;1.30;;;;;;;;;;5037020;28;20250;-65
2022/07/16 11:40:34;;;;;;;3.10;1.40;;;;;;;;;;5029104;28;20579;-65
2022/07/16 11:43:08;;;;;;;2.70;1.30;;;;;;;;;;5015465;28;20211;-65
2022/07/16 11:45:45;;;;;;;2.07;1.13;;;;;;;;;;5028871;28;20195;-65
2022/07/16 11:48:19;;;;;;;2.00;1.13;;;;;;;;;;4992175;28;20194;-65
2022/07/16 11:50:54;;;;;;;2.17;1.10;;;;;;;;;;5008779;28;20223;-65
2022/07/16 11:53:27;;;;;;;2.23;1.30;;;;;;;;;;5027453;28;20604;-66
2022/07/16 11:55:57;;;;;;;2.17;1.27;;;;;;;;;;5039822;28;20682;-65
2022/07/16 11:58:28;;;;;;;3.13;1.30;;;;;;;;;;5028656;28;20198;-65
2022/07/16 12:00:56;;;;;;;2.37;1.33;;;;;;;;;;5033468;28;20187;-66
2022/07/16 12:03:32;;;;;;;2.10;1.13;;;;;;;;;;5028164;28;21006;-66
2022/07/16 12:06:05;;;;;;;2.40;1.40;;;;;;;;;;5012899;28;20207;-66
2022/07/16 12:08:50;;;;;;;2.07;1.20;;;;;;;;;;5009961;28;20227;-66
2022/07/16 12:11:33;;;;;;;2.97;1.10;;;;;;;;;;5027942;28;20294;-66
2022/07/16 12:14:04;;;;;;;1.67;1.00;;;;;;;;;;5031653;28;20195;-66
2022/07/16 12:16:35;;;;;;;3.53;1.20;;;;;;;;;;5009810;28;20549;-66
2022/07/16 12:19:14;;;;;;;2.13;1.00;;;;;;;;;;5033427;28;20393;-66
2022/07/16 12:21:43;;;;;;;1.77;1.13;;;;;;;;;;5025476;28;20213;-66
2022/07/16 12:24:14;;;;;;;1.27;1.07;;;;;;;;;;5028405;28;20255;-66
2022/07/16 12:26:53;;;;;;;4.23;1.40;;;;;;;;;;5028305;28;20195;-65
2022/07/16 12:29:39;;;;;;;3.97;1.27;;;;;;;;;;5009121;28;20266;-65
2022/07/16 12:32:10;;;;;;;4.13;1.20;;;;;;;;;;5033077;28;20621;-65
2022/07/16 12:34:46;;;;;;;2.53;1.20;;;;;;;;;;5037777;28;20577;-66
2022/07/16 12:37:16;;;;;;;4.07;1.33;;;;;;;;;;5039054;28;20187;-66
2022/07/16 12:39:47;;;;;;;2.93;1.37;;;;;;;;;;5027140;28;20203;-65
2022/07/16 12:42:19;;;;;;;1.90;1.10;;;;;;;;;;5038179;28;20182;-66
2022/07/16 12:44:48;;;;;;;2.57;1.40;;;;;;;;;;5028906;28;20628;-65
2022/07/16 12:47:20;;;;;;;1.07;0.83;;;;;;;;;;5032595;28;20680;-65
2022/07/16 12:49:49;;;;;;;2.93;1.43;;;;;;;;;;5013379;28;20231;-65
2022/07/16 12:52:22;;;;;;;2.73;1.20;;;;;;;;;;5023205;28;20752;-66
2022/07/16 13:00:39;;;;;;;3.00;1.00;;;;;;;;;;5017180;28;20233;-67
2022/07/16 13:03:09;;;;;;;1.63;0.90;;;;;;;;;;5008054;28;20211;-67
2022/07/16 13:05:41;;;;;;;2.53;1.10;;;;;;;;;;5029245;28;20219;-65
2022/07/16 13:08:08;;;;;;;2.43;1.10;;;;;;;;;;5032569;28;20218;-65
2022/07/16 13:10:41;;;;;;;3.50;1.07;;;;;;;;;;5016119;28;20241;-65
2022/07/16 13:13:18;;;;;;;4.57;1.30;;;;;;;;;;5030776;28;20237;-65
2022/07/16 13:15:48;;;;;;;3.07;1.50;;;;;;;;;;5029419;28;20941;-65
2022/07/16 13:18:19;;;;;;;2.03;1.00;;;;;;;;;;5030282;28;20628;-65
2022/07/16 13:20:49;;;;;;;2.43;1.10;;;;;;;;;;5026540;28;20258;-65
2022/07/16 13:23:19;;;;;;;2.37;1.10;;;;;;;;;;5031816;28;20202;-65
2022/07/16 13:25:51;;;;;;;2.90;1.13;;;;;;;;;;5015145;28;20431;-66
2022/07/16 13:28:25;;;;;;;1.40;1.10;;;;;;;;;;5010997;28;20211;-66
2022/07/16 13:30:53;;;;;;;1.70;1.03;;;;;;;;;;5022546;28;20234;-66
2022/07/16 13:33:23;;;;;;;2.40;1.03;;;;;;;;;;5035035;28;20197;-66
2022/07/16 13:35:59;;;;;;;2.23;1.23;;;;;;;;;;5038065;28;20197;-65
2022/07/16 13:38:28;;;;;;;3.80;1.40;;;;;;;;;;5012521;28;20231;-65
2022/07/16 13:40:59;;;;;;;2.67;1.00;;;;;;;;;;5008426;28;20620;-66
2022/07/16 13:43:26;;;;;;;4.17;1.30;;;;;;;;;;5035720;28;20218;-67
2022/07/16 13:45:55;;;;;;;3.37;1.20;;;;;;;;;;5016962;28;20209;-66
2022/07/16 13:48:26;;;;;;;4.27;1.20;;;;;;;;;;5029875;28;20342;-65
2022/07/16 13:50:54;;;;;;;1.77;1.07;;;;;;;;;;5028041;28;20234;-67
2022/07/16 13:53:29;;;;;;;2.10;1.07;;;;;;;;;;4984197;28;20202;-67
2022/07/16 13:56:09;;;;;;;1.97;1.00;;;;;;;;;;5021323;28;20203;-67
2022/07/16 13:58:38;;;;;;;2.80;1.20;;;;;;;;;;5029760;28;20256;-67
2022/07/16 14:01:08;;;;;;;1.53;1.07;;;;;;;;;;5008976;28;20219;-66
2022/07/16 14:03:40;;;;;;;4.40;1.37;;;;;;;;;;4995045;28;20663;-66
2022/07/16 14:06:13;;;;;;;1.90;1.03;;;;;;;;;;5013797;28;20269;-64
2022/07/16 14:08:40;;;;;;;5.53;1.40;;;;;;;;;;5017471;28;20620;-64
2022/07/16 14:11:15;;;;;;;4.47;1.10;;;;;;;;;;5026756;28;20250;-65
2022/07/16 14:13:47;;;;;;;2.37;1.37;;;;;;;;;;5024046;28;20194;-65
2022/07/16 14:16:17;;;;;;;1.93;1.13;;;;;;;;;;5021697;28;20555;-65
2022/07/16 14:18:50;;;;;;;3.43;1.33;;;;;;;;;;5025588;28;20191;-65
2022/07/16 14:21:33;;;;;;;1.43;1.10;;;;;;;;;;5004895;28;20206;-66
2022/07/16 14:24:08;;;;;;;4.27;1.20;;;;;;;;;;5033887;28;20664;-65
2022/07/16 14:26:43;;;;;;;2.20;1.20;;;;;;;;;;5029819;28;20207;-65
2022/07/16 14:29:24;;;;;;;3.87;1.10;;;;;;;;;;5007085;28;20238;-65
2022/07/16 14:31:58;;;;;;;2.17;1.10;;;;;;;;;;5030010;28;20647;-65
2022/07/16 14:34:35;;;;;;;2.37;1.13;;;;;;;;;;5003511;28;20294;-65
2022/07/16 14:37:04;;;;;;;3.23;1.10;;;;;;;;;;5030136;28;20206;-66
2022/07/16 14:39:35;;;;;;;2.27;1.07;;;;;;;;;;5009086;28;20262;-67
2022/07/16 14:42:05;;;;;;;5.23;1.23;;;;;;;;;;4995053;28;20199;-67
2022/07/16 14:44:34;;;;;;;2.27;1.20;;;;;;;;;;5001478;28;20199;-66
2022/07/16 14:47:07;;;;;;;2.17;1.10;;;;;;;;;;5000545;28;20648;-66
2022/07/16 14:49:40;;;;;;;2.73;1.07;;;;;;;;;;5031854;28;20337;-66
2022/07/16 14:52:11;;;;;;;2.90;1.23;;;;;;;;;;5032228;28;20237;-65
2022/07/16 14:54:39;;;;;;;3.47;1.50;;;;;;;;;;5013949;28;20264;-65
2022/07/16 14:57:13;;;;;;;2.00;1.10;;;;;;;;;;5015692;28;20195;-67
2022/07/16 14:59:43;;;;;;;5.03;1.33;;;;;;;;;;5023247;28;20226;-66
2022/07/16 15:02:13;;;;;;;1.23;0.90;;;;;;;;;;5033266;28;20194;-67
2022/07/16 15:04:43;;;;;;;4.20;0.80;;;;;;;;;;5005826;28;20222;-67
2022/07/16 15:07:13;;;;;;;2.33;0.97;;;;;;;;;;5012485;28;20206;-67
2022/07/16 15:09:45;;;;;;;3.53;1.37;;;;;;;;;;5037301;28;20223;-67
2022/07/16 15:12:27;;;;;;;4.43;1.50;;;;;;;;;;5026094;28;20224;-67
2022/07/16 15:14:58;;;;;;;3.17;1.00;;;;;;;;;;5020249;28;20195;-66
2022/07/16 15:17:27;;;;;;;2.53;1.27;;;;;;;;;;4988189;28;20219;-67
2022/07/16 15:19:57;;;;;;;2.77;1.40;;;;;;;;;;5033437;28;20733;-67
2022/07/16 15:22:28;;;;;;;3.57;1.40;;;;;;;;;;5031465;28;20675;-67
2022/07/16 15:25:05;;;;;;;2.90;1.30;;;;;;;;;;5011074;28;20205;-67
2022/07/16 15:27:35;;;;;;;3.33;1.10;;;;;;;;;;4991124;28;20219;-65